Time;durP1;ratioP1;P1;durP2;ratioP2;P2;SDS_P1;SDS_P2;PMS_P1;PMS_P2;Temp;Humidity;BMP_temperature;BMP_pressure;BME280_temperature;BME280_humidity;BME280_pressure;Samples;Min_cycle;Max_cycle;Signal;HPM_P1;HPM_P2
2022/06/04 00:00:05;;;;;;;9.90;5.93;;;;;;;23.68;57.73;99967.81;3139567;28;20051;-72
2022/06/04 00:01:37;;;;;;;9.40;6.00;;;;;;;23.81;57.44;99992.25;3132552;28;20049;-72
2022/06/04 00:03:11;;;;;;;10.17;5.67;;;;;;;23.79;57.88;99986.25;3133434;28;20060;-72
2022/06/04 00:04:43;;;;;;;12.32;6.30;;;;;;;23.47;57.58;99935.34;3139530;28;20056;-73
2022/06/04 00:06:15;;;;;;;16.17;6.50;;;;;;;23.76;57.70;99983.91;3139523;28;20048;-73
2022/06/04 00:07:48;;;;;;;11.20;6.10;;;;;;;23.73;57.67;99981.53;3139765;28;20118;-74
2022/06/04 00:09:21;;;;;;;14.15;6.40;;;;;;;23.64;57.89;99960.31;3139826;28;21024;-74
2022/06/04 00:16:31;;;;;;;13.70;6.80;;;;;;;23.42;58.00;99934.94;3141738;28;20763;-73
2022/06/04 00:18:01;;;;;;;11.15;6.45;;;;;;;23.65;57.67;99962.78;3141856;28;20182;-73
2022/06/04 00:19:35;;;;;;;12.95;6.03;;;;;;;23.64;58.08;99965.63;3142187;28;20193;-73
2022/06/04 00:21:07;;;;;;;;;;;;;;;23.59;58.15;99963.41;3142243;28;20056;-73
2022/06/04 00:22:39;;;;;;;12.73;5.80;;;;;;;23.57;58.19;99954.72;3141599;28;20479;-72
2022/06/04 00:24:10;;;;;;;12.88;6.47;;;;;;;23.52;58.23;99954.34;3141687;28;20060;-72
2022/06/04 00:25:45;;;;;;;14.52;6.45;;;;;;;23.44;58.66;99947.09;3141485;28;20055;-72
2022/06/04 00:27:21;;;;;;;10.02;6.75;;;;;;;23.43;59.21;99947.28;3141534;28;20110;-72
2022/06/04 00:28:52;;;;;;;9.00;6.25;;;;;;;23.43;59.74;99960.56;3141126;28;20044;-72
2022/06/04 00:30:24;;;;;;;10.18;6.40;;;;;;;23.40;59.35;99961.69;3133781;28;20515;-72
2022/06/04 00:31:56;;;;;;;13.07;6.53;;;;;;;23.38;59.48;99950.38;3152638;28;20445;-72
2022/06/04 00:33:27;;;;;;;13.00;6.28;;;;;;;23.32;60.11;99948.31;3141596;28;20438;-72
2022/06/04 00:35:04;;;;;;;12.90;6.88;;;;;;;23.32;60.46;99957.09;3140918;28;20052;-71
2022/06/04 00:36:37;;;;;;;8.93;6.50;;;;;;;23.30;60.14;99953.75;3141572;28;20079;-72
2022/06/04 00:38:09;;;;;;;12.55;6.93;;;;;;;23.31;60.54;99951.94;3141468;28;21184;-72
2022/06/04 00:39:43;;;;;;;13.07;6.53;;;;;;;23.30;60.48;99956.41;3141665;28;20179;-72
2022/06/04 00:41:23;;;;;;;12.45;7.00;;;;;;;23.29;61.31;99964.53;3141729;28;20063;-72
2022/06/04 00:43:17;;;;;;;13.25;6.78;;;;;;;23.25;61.67;99964.00;3141155;28;20083;-73
2022/06/04 00:45:30;;;;;;;10.40;7.00;;;;;;;23.19;62.03;99959.28;3141255;28;20049;-71
2022/06/04 00:47:15;;;;;;;9.85;6.85;;;;;;;23.16;62.56;99959.56;3141507;28;20477;-73
2022/06/04 00:48:46;;;;;;;14.55;7.28;;;;;;;23.11;62.94;99965.31;3141811;28;20052;-73
2022/06/04 00:50:22;;;;;;;13.55;6.85;;;;;;;23.08;62.60;99951.50;3140651;28;20059;-73
2022/06/04 00:51:55;;;;;;;13.10;6.78;;;;;;;23.06;63.46;99961.41;3141324;28;20048;-74
2022/06/04 00:53:27;;;;;;;11.43;7.40;;;;;;;23.02;63.69;99965.34;3141152;28;20606;-73
2022/06/04 00:54:59;;;;;;;10.95;6.30;;;;;;;22.94;63.76;99961.59;3141281;28;20045;-73
2022/06/04 00:56:38;;;;;;;10.20;6.18;;;;;;;22.93;64.00;99965.19;3140815;28;20044;-72
2022/06/04 00:58:30;;;;;;;11.65;6.55;;;;;;;22.88;63.92;99964.78;3138720;28;20074;-73
2022/06/04 01:00:07;;;;;;;11.35;6.70;;;;;;;22.88;63.97;99964.78;3141276;28;20130;-73
2022/06/04 01:01:49;;;;;;;14.32;6.20;;;;;;;22.89;64.10;99960.31;3140933;28;20048;-73
2022/06/04 01:03:37;;;;;;;11.30;6.80;;;;;;;22.90;63.94;99962.00;3140950;28;20121;-73
2022/06/04 01:05:18;;;;;;;10.55;6.68;;;;;;;22.85;63.74;99946.50;3140339;28;20104;-73
2022/06/04 01:06:59;;;;;;;13.85;6.32;;;;;;;22.86;64.26;99964.09;3141501;28;20056;-73
2022/06/04 01:08:44;;;;;;;13.88;6.50;;;;;;;22.78;64.23;99947.22;3140964;28;20469;-72
2022/06/04 01:10:25;;;;;;;13.82;7.30;;;;;;;22.82;64.66;99959.22;3141289;28;20139;-72
2022/06/04 01:12:10;;;;;;;12.52;6.53;;;;;;;22.79;64.56;99964.81;3141356;28;20546;-73
2022/06/04 01:13:59;;;;;;;12.57;7.68;;;;;;;22.71;64.88;99965.53;3141336;28;20517;-74
2022/06/04 01:15:47;;;;;;;12.18;7.45;;;;;;;22.64;64.99;99956.47;3141221;28;20044;-73
2022/06/04 01:17:26;;;;;;;13.38;6.90;;;;;;;22.61;65.59;99959.41;3140873;28;20057;-73
2022/06/04 01:19:08;;;;;;;10.93;6.93;;;;;;;22.58;65.63;99957.06;3141061;28;20044;-73
2022/06/04 01:20:48;;;;;;;12.73;7.50;;;;;;;22.47;65.77;99950.06;3141124;28;20122;-72
2022/06/04 01:22:42;;;;;;;9.00;6.63;;;;;;;22.49;66.13;99951.59;3141128;28;20048;-72
2022/06/04 01:24:39;;;;;;;13.82;7.50;;;;;;;22.49;66.01;99956.09;3141188;28;20139;-74
2022/06/04 01:26:35;;;;;;;12.50;7.07;;;;;;;22.50;65.86;99952.44;3140876;28;20116;-75
2022/06/04 01:28:09;;;;;;;11.35;6.60;;;;;;;22.49;65.57;99956.91;3140999;28;20056;-76
2022/06/04 01:29:48;;;;;;;14.80;7.38;;;;;;;22.53;66.11;99954.81;3140960;28;20175;-75
2022/06/04 01:31:26;;;;;;;9.98;7.45;;;;;;;22.51;66.20;99954.13;3140595;28;20048;-75
2022/06/04 01:33:04;;;;;;;12.43;7.70;;;;;;;22.52;66.13;99961.09;3141272;28;20063;-75
2022/06/04 01:34:40;;;;;;;11.95;7.25;;;;;;;22.38;66.72;99933.19;3139911;28;20059;-75
2022/06/04 01:36:18;;;;;;;13.57;7.65;;;;;;;22.46;66.86;99951.91;3136427;28;20521;-75
2022/06/04 01:37:56;;;;;;;13.35;7.60;;;;;;;22.47;66.71;99947.41;3140658;28;20106;-75
2022/06/04 01:41:03;;;;;;;20.80;6.72;;;;;;;22.43;67.42;99941.56;3140644;28;20126;-75
2022/06/04 01:41:28;;;;;;;11.02;6.43;;;;;;;22.40;67.02;99930.41;3140660;28;20167;-75
2022/06/04 01:43:01;;;;;;;15.30;7.10;;;;;;;22.39;67.52;99928.72;3141176;28;20118;-75
2022/06/04 01:44:35;;;;;;;;;;;;;;;22.39;67.25;99934.88;3141161;28;20049;-75
2022/06/04 01:46:13;;;;;;;9.75;6.75;;;;;;;22.16;67.12;99893.69;3140531;28;19950;-73
2022/06/04 01:47:50;;;;;;;9.90;7.32;;;;;;;22.35;67.35;99930.81;3140971;28;20080;-74
2022/06/04 01:49:25;;;;;;;13.38;7.30;;;;;;;22.35;67.42;99930.81;3140904;28;20094;-74
2022/06/04 01:51:01;;;;;;;11.73;7.20;;;;;;;22.04;67.44;99885.03;3140666;28;20544;-75
2022/06/04 01:52:36;;;;;;;12.25;7.10;;;;;;;22.18;67.69;99911.16;3140604;28;20131;-75
2022/06/04 01:54:14;;;;;;;10.75;7.55;;;;;;;22.07;67.51;99903.31;3140723;28;20124;-75
2022/06/04 01:55:52;;;;;;;10.88;7.25;;;;;;;22.30;67.74;99941.00;3140850;28;20057;-75
2022/06/04 01:57:32;;;;;;;10.43;7.05;;;;;;;22.31;67.44;99942.69;3140405;28;20052;-74
2022/06/04 01:59:10;;;;;;;13.30;6.60;;;;;;;22.15;67.18;99919.34;3140791;28;20052;-73
2022/06/04 02:00:46;;;;;;;11.13;6.70;;;;;;;22.31;67.25;99937.41;3140405;28;20403;-73
2022/06/04 02:02:24;;;;;;;11.20;6.72;;;;;;;22.18;67.27;99912.97;3140524;28;20101;-74
2022/06/04 02:04:03;;;;;;;13.85;7.43;;;;;;;22.04;67.22;99893.00;3140563;28;20109;-74
2022/06/04 02:05:41;;;;;;;11.02;6.63;;;;;;;22.29;66.98;99930.56;3140641;28;20084;-73
2022/06/04 02:07:30;;;;;;;17.98;7.40;;;;;;;22.31;67.00;99942.69;3140487;28;20055;-72
2022/06/04 02:09:06;;;;;;;10.93;7.15;;;;;;;22.28;67.35;99953.59;3140617;28;20082;-72
2022/06/04 02:10:43;;;;;;;11.77;6.93;;;;;;;22.17;67.60;99945.78;3140218;28;20052;-73
2022/06/04 02:12:15;;;;;;;13.65;7.00;;;;;;;22.16;67.31;99950.22;3140547;28;20110;-72
2022/06/04 02:13:53;;;;;;;13.05;7.07;;;;;;;22.16;67.52;99950.22;3140389;28;20548;-72
2022/06/04 02:15:30;;;;;;;11.45;7.28;;;;;;;22.17;67.23;99953.72;3140347;28;20528;-73
2022/06/04 02:17:07;;;;;;;10.73;6.82;;;;;;;22.11;67.02;99946.31;3140514;28;20048;-73
2022/06/04 02:18:39;;;;;;;13.50;6.40;;;;;;;22.12;66.84;99947.97;3140268;28;20049;-72
2022/06/04 02:20:12;;;;;;;11.02;6.88;;;;;;;22.15;67.01;99953.00;3139863;28;20056;-72
2022/06/04 02:21:44;;;;;;;12.02;7.35;;;;;;;22.10;66.81;99944.66;3133745;28;20049;-73
2022/06/04 02:23:16;;;;;;;13.20;7.13;;;;;;;22.14;66.38;99957.47;3140166;28;20052;-73
2022/06/04 02:24:48;;;;;;;10.80;7.70;;;;;;;22.14;66.65;99961.94;3140480;28;20059;-73
2022/06/04 02:26:20;;;;;;;11.35;7.18;;;;;;;22.07;66.21;99956.38;3140074;28;20067;-72
2022/06/04 02:27:52;;;;;;;12.48;7.45;;;;;;;21.92;66.63;99947.97;3139849;28;20048;-73
2022/06/04 02:29:26;;;;;;;11.85;7.47;;;;;;;21.98;66.42;99954.56;3140280;28;20052;-72
2022/06/04 02:31:06;;;;;;;9.65;6.85;;;;;;;21.88;66.79;99959.00;3143655;28;20055;-72
2022/06/04 02:32:49;;;;;;;10.38;7.55;;;;;;;21.91;66.51;99967.50;3146122;28;20136;-72
2022/06/04 02:34:28;;;;;;;10.85;7.18;;;;;;;21.88;66.78;99962.47;3139741;28;20586;-72
2022/06/04 02:36:05;;;;;;;11.02;7.70;;;;;;;21.83;66.68;99963.84;3140503;28;20805;-76
2022/06/04 02:37:47;;;;;;;14.00;7.20;;;;;;;21.88;66.52;99980.19;3140240;28;20078;-77
2022/06/04 02:39:24;;;;;;;12.32;7.00;;;;;;;21.89;66.54;99973.91;3140398;28;20125;-73
2022/06/04 02:41:00;;;;;;;9.82;6.78;;;;;;;21.91;66.45;99978.09;3140058;28;20296;-73
2022/06/04 02:42:36;;;;;;;14.43;6.68;;;;;;;21.86;66.61;99979.50;3140023;28;20047;-73
2022/06/04 02:44:16;;;;;;;12.85;7.43;;;;;;;21.75;66.71;99983.13;3140521;28;20060;-75
2022/06/04 02:45:56;;;;;;;14.57;7.03;;;;;;;21.67;66.96;99975.84;3140180;28;20060;-73
2022/06/04 02:47:35;;;;;;;10.95;6.72;;;;;;;21.60;66.90;99980.00;3140316;28;20106;-73
2022/06/04 02:49:13;;;;;;;15.43;8.23;;;;;;;21.51;67.37;99976.38;3129836;28;20049;-73
2022/06/04 02:50:49;;;;;;;13.23;8.35;;;;;;;21.45;67.74;99986.66;3139839;28;20060;-72
2022/06/04 02:52:23;;;;;;;14.13;8.70;;;;;;;21.43;67.52;99983.31;3139933;28;20067;-75
2022/06/04 02:53:57;;;;;;;12.38;7.90;;;;;;;21.39;67.72;99982.75;3140376;28;20098;-73
2022/06/04 02:55:32;;;;;;;;;;;;;;;21.38;67.44;99983.69;3140293;28;20079;-73
2022/06/04 02:57:05;;;;;;;15.68;9.45;;;;;;;21.15;67.38;99953.91;3139952;28;19929;-74
2022/06/04 02:58:39;;;;;;;15.18;9.02;;;;;;;21.39;67.57;99989.84;3140198;28;20499;-74
2022/06/04 03:00:14;;;;;;;15.02;9.88;;;;;;;21.25;67.33;99961.88;3140168;28;20478;-73
2022/06/04 03:01:52;;;;;;;18.88;9.50;;;;;;;21.44;67.08;99995.56;3140180;28;20113;-73
2022/06/04 03:03:25;;;;;;;13.38;9.30;;;;;;;21.45;67.06;99998.09;3135167;28;20098;-73
2022/06/04 03:04:57;;;;;;;19.55;9.77;;;;;;;21.42;66.85;99998.38;3139978;28;20182;-73
2022/06/04 03:06:32;;;;;;;17.77;9.93;;;;;;;21.29;66.74;99984.47;3139950;28;20059;-75
2022/06/04 03:08:05;;;;;;;14.18;9.85;;;;;;;21.45;66.63;100002.56;3140074;28;20052;-76
2022/06/04 03:09:38;;;;;;;14.25;9.38;;;;;;;21.47;66.70;100003.25;3139904;28;20058;-76
2022/06/04 03:11:10;;;;;;;20.52;10.52;;;;;;;21.48;66.82;100005.78;3139983;28;20143;-75
2022/06/04 03:12:42;;;;;;;17.17;9.48;;;;;;;21.50;66.44;100001.19;3139692;28;20064;-77
2022/06/04 03:14:16;;;;;;;14.32;8.80;;;;;;;21.53;66.30;100005.34;3140257;28;20516;-76
2022/06/04 03:15:48;;;;;;;20.00;9.73;;;;;;;21.55;66.32;100004.25;3139728;28;20454;-75
2022/06/04 03:17:22;;;;;;;21.93;9.37;;;;;;;21.13;66.39;99935.50;3139873;28;20076;-76
2022/06/04 03:18:53;;;;;;;;;;;;;;;21.58;66.24;100006.63;3140464;28;20048;-75
2022/06/04 03:20:27;;;;;;;19.38;9.02;;;;;;;21.61;66.00;100010.00;3139719;28;19989;-72
2022/06/04 03:21:59;;;;;;;14.45;9.00;;;;;;;21.61;66.01;100007.34;3139776;28;20472;-72
2022/06/04 03:23:32;;;;;;;14.18;9.07;;;;;;;21.63;65.68;100013.38;3139528;28;20111;-72
2022/06/04 03:25:05;;;;;;;17.77;9.57;;;;;;;21.66;65.95;100007.78;3139724;28;20114;-73
2022/06/04 03:26:37;;;;;;;17.75;8.43;;;;;;;21.65;65.59;100006.97;3139818;28;20060;-72
2022/06/04 03:28:10;;;;;;;13.80;8.57;;;;;;;21.57;65.59;99989.06;3139962;28;20106;-73
2022/06/04 03:29:41;;;;;;;13.93;8.17;;;;;;;21.67;65.75;100010.28;3139808;28;20220;-73
2022/06/04 03:31:13;;;;;;;18.02;8.43;;;;;;;21.64;65.60;100004.44;3139895;28;20049;-73
2022/06/04 03:32:47;;;;;;;15.43;8.55;;;;;;;21.66;65.65;99999.84;3139465;28;20059;-74
2022/06/04 03:34:18;;;;;;;;;;;;;;;21.66;65.32;100005.97;3139835;28;20049;-72
2022/06/04 03:35:50;;;;;;;17.55;9.20;;;;;;;21.59;65.61;100010.13;3132648;28;19924;-74
2022/06/04 03:37:22;;;;;;;15.32;8.15;;;;;;;21.64;65.35;100013.22;3139707;28;20049;-75
2022/06/04 03:38:56;;;;;;;15.77;8.63;;;;;;;21.63;65.17;100006.25;3139832;28;20056;-74
2022/06/04 03:40:28;;;;;;;17.55;8.48;;;;;;;21.30;65.55;99949.09;3139751;28;20259;-75
2022/06/04 03:42:01;;;;;;;19.05;8.70;;;;;;;21.49;65.31;99994.19;3138844;28;20705;-74
2022/06/04 03:43:32;;;;;;;17.83;8.52;;;;;;;21.56;65.67;99998.00;3135151;28;20057;-74
2022/06/04 03:45:04;;;;;;;18.30;8.50;;;;;;;21.43;65.63;99978.84;3136173;28;20479;-74
2022/06/04 03:46:37;;;;;;;14.85;8.77;;;;;;;21.60;65.31;99998.56;3135115;28;20113;-75
2022/06/04 03:48:10;;;;;;;10.98;7.70;;;;;;;21.47;65.34;99990.00;3136018;28;20066;-75
2022/06/04 03:49:46;;;;;;;18.63;8.60;;;;;;;21.59;65.08;100004.81;3135980;28;20589;-77
2022/06/04 03:51:18;;;;;;;19.15;8.00;;;;;;;21.63;64.95;100005.41;3138015;28;20355;-76
2022/06/04 03:52:50;;;;;;;14.87;8.00;;;;;;;21.65;64.96;100014.03;3137622;28;20052;-77
2022/06/04 03:54:52;;;;;;;13.93;7.45;;;;;;;21.60;64.87;100009.16;3136998;28;20881;-76
2022/06/04 03:56:14;;;;;;;11.98;7.63;;;;;;;21.64;64.70;100026.47;3136949;28;20517;-78
2022/06/04 03:57:48;;;;;;;18.98;7.60;;;;;;;21.66;64.56;100019.22;3138436;28;20371;-76
2022/06/04 03:59:20;;;;;;;14.30;7.15;;;;;;;21.67;64.68;100028.84;3138134;28;20139;-75
2022/06/04 04:00:53;;;;;;;17.98;7.32;;;;;;;21.71;64.64;100018.81;3136871;28;20071;-74
2022/06/04 04:02:25;;;;;;;14.50;7.43;;;;;;;21.61;64.32;99999.41;3133061;28;20086;-74
2022/06/04 04:04:00;;;;;;;11.45;7.47;;;;;;;21.69;64.36;100015.47;3137426;28;20052;-75
2022/06/04 04:05:34;;;;;;;14.15;6.35;;;;;;;21.77;64.51;100020.94;3136936;28;20480;-73
2022/06/04 04:07:06;;;;;;;15.23;7.22;;;;;;;21.79;64.34;100016.31;3136639;28;20060;-73
2022/06/04 04:08:38;;;;;;;12.30;6.40;;;;;;;21.79;64.52;100013.66;3137053;28;20079;-73
2022/06/04 04:10:12;;;;;;;12.27;6.70;;;;;;;21.60;64.26;99980.00;3138227;28;20052;-73
2022/06/04 04:11:44;;;;;;;14.35;7.13;;;;;;;21.86;64.02;100016.59;3133895;28;20135;-74
2022/06/04 04:13:17;;;;;;;10.82;6.13;;;;;;;21.62;63.97;99966.63;3130959;28;20390;-74
2022/06/04 04:14:49;;;;;;;;;;;;;;;21.89;63.80;100011.88;3138420;28;20048;-74
2022/06/04 04:16:22;;;;;;;11.20;6.20;;;;;;;21.90;63.51;100010.91;3137041;28;20739;-74
2022/06/04 04:17:54;;;;;;;11.00;6.45;;;;;;;21.93;63.42;100007.16;3136855;28;20059;-74
2022/06/04 04:19:29;;;;;;;10.13;5.57;;;;;;;21.97;63.50;100005.88;3137001;28;20143;-74
2022/06/04 04:21:05;;;;;;;12.27;6.47;;;;;;;21.98;62.84;100005.75;3136933;28;20509;-74
2022/06/04 04:22:38;;;;;;;10.25;6.13;;;;;;;22.00;63.19;100002.97;3136694;28;20067;-74
2022/06/04 04:24:10;;;;;;;8.48;6.03;;;;;;;21.86;63.15;99979.50;3136597;28;20052;-74
2022/06/04 04:25:42;;;;;;;15.38;6.40;;;;;;;22.04;62.52;100009.69;3136933;28;20113;-74
2022/06/04 04:27:15;;;;;;;11.40;6.07;;;;;;;22.06;62.73;100002.41;3136342;28;20548;-74
2022/06/04 04:28:47;;;;;;;18.20;6.57;;;;;;;22.11;62.79;100007.31;3137097;28;20425;-72
2022/06/04 04:30:21;;;;;;;13.32;5.75;;;;;;;22.11;62.32;99999.34;3138984;28;20053;-74
2022/06/04 04:31:53;;;;;;;9.00;5.88;;;;;;;22.16;62.52;100002.44;3152656;28;20055;-73
2022/06/04 04:33:25;;;;;;;11.02;6.03;;;;;;;22.20;62.13;100003.84;3141604;28;20056;-74
2022/06/04 04:34:59;;;;;;;15.05;7.20;;;;;;;22.21;62.22;100000.22;3135854;28;20244;-73
2022/06/04 04:36:31;;;;;;;;;;;;;;;22.28;61.94;100004.00;3139912;28;20106;-73
2022/06/04 04:38:03;;;;;;;12.35;6.30;;;;;;;22.33;62.14;100007.09;3141686;28;20385;-74
2022/06/04 04:39:35;;;;;;;13.82;6.80;;;;;;;22.33;62.18;100003.56;3141700;28;20048;-73
2022/06/04 04:41:09;;;;;;;16.85;6.22;;;;;;;22.44;61.75;100014.03;3141320;28;20060;-74
2022/06/04 04:42:41;;;;;;;12.40;6.88;;;;;;;22.34;61.71;99987.53;3141333;28;20049;-73
2022/06/04 04:44:13;;;;;;;13.25;6.93;;;;;;;22.50;61.47;100005.53;3141615;28;20071;-73
2022/06/04 04:45:45;;;;;;;9.75;5.90;;;;;;;22.34;61.21;99973.41;3141607;28;20059;-73
2022/06/04 04:47:18;;;;;;;11.65;6.95;;;;;;;22.30;61.21;99964.06;3141395;28;20057;-73
2022/06/04 04:48:50;;;;;;;10.82;6.25;;;;;;;22.61;61.24;100012.50;3141654;28;20110;-73
2022/06/04 04:50:26;;;;;;;12.10;6.47;;;;;;;22.65;60.86;100019.19;3141692;28;20113;-74
2022/06/04 04:51:59;;;;;;;13.68;5.90;;;;;;;22.54;60.88;100000.75;3141496;28;20056;-73
2022/06/04 04:53:31;;;;;;;10.02;6.20;;;;;;;22.51;60.61;99998.38;3141379;28;20052;-73
2022/06/04 04:55:03;;;;;;;11.27;6.20;;;;;;;22.71;60.88;100023.94;3141490;28;20114;-73
2022/06/04 04:56:35;;;;;;;9.05;6.13;;;;;;;22.71;61.20;100026.59;3141480;28;20059;-74
2022/06/04 04:58:07;;;;;;;17.63;6.85;;;;;;;22.53;60.99;99997.28;3141307;28;20113;-75
2022/06/04 04:59:39;;;;;;;14.13;7.07;;;;;;;22.42;61.07;99977.06;3141288;28;20055;-75
2022/06/04 05:01:15;;;;;;;15.90;6.57;;;;;;;22.56;60.81;99997.00;3140984;28;20804;-74
2022/06/04 05:02:47;;;;;;;15.13;6.78;;;;;;;22.75;61.17;100017.38;3136013;28;20052;-74
2022/06/04 05:04:19;;;;;;;12.60;6.90;;;;;;;22.79;60.98;100023.25;3141228;28;20056;-73
2022/06/04 05:05:59;;;;;;;14.13;6.80;;;;;;;22.83;60.85;100017.47;3141334;28;20048;-74
2022/06/04 05:07:32;;;;;;;9.45;6.38;;;;;;;22.90;60.82;100023.91;3140917;28;20045;-74
2022/06/04 05:09:04;;;;;;;9.00;6.25;;;;;;;22.84;60.80;100005.91;3141318;28;20061;-75
2022/06/04 05:10:36;;;;;;;10.02;5.95;;;;;;;22.92;60.34;100006.03;3141161;28;20053;-75
2022/06/04 05:12:09;;;;;;;9.55;6.50;;;;;;;23.11;60.27;100031.72;3140867;28;20056;-75
2022/06/04 05:13:41;;;;;;;15.30;6.28;;;;;;;22.91;60.21;99991.06;3141173;28;20135;-75
2022/06/04 05:15:13;;;;;;;14.57;7.05;;;;;;;22.99;59.72;99997.50;3141123;28;20098;-75
2022/06/04 05:16:45;;;;;;;15.40;6.47;;;;;;;23.22;59.62;100019.22;3140266;28;20052;-74
2022/06/04 05:18:17;;;;;;;15.43;6.63;;;;;;;23.31;59.44;100024.53;3140927;28;20052;-74
2022/06/04 05:19:49;;;;;;;11.50;6.63;;;;;;;23.36;59.06;100030.22;3141145;28;20126;-73
2022/06/04 05:21:25;;;;;;;20.70;7.32;;;;;;;23.42;58.76;100033.28;3141004;28;20578;-73
2022/06/04 05:22:57;;;;;;;10.75;6.82;;;;;;;23.41;58.73;100031.63;3141062;28;20056;-71
2022/06/04 05:24:31;;;;;;;11.68;6.22;;;;;;;23.27;58.68;100009.84;3140623;28;20574;-71
2022/06/04 05:26:03;;;;;;;14.43;6.32;;;;;;;23.48;58.58;100032.69;3141013;28;20504;-69
2022/06/04 05:27:35;;;;;;;10.98;6.30;;;;;;;23.51;58.17;100043.03;3141071;28;20055;-71
2022/06/04 05:29:07;;;;;;;15.32;5.95;;;;;;;23.52;58.02;100039.41;3140719;28;20056;-71
2022/06/04 05:30:39;;;;;;;11.95;6.35;;;;;;;23.34;58.30;100010.94;3141688;28;20056;-74
2022/06/04 05:32:11;;;;;;;10.65;6.30;;;;;;;23.58;58.16;100044.13;3150695;28;20052;-72
2022/06/04 05:33:43;;;;;;;19.17;6.60;;;;;;;23.58;58.43;100034.34;3140771;28;20056;-72
2022/06/04 05:35:15;;;;;;;15.20;6.00;;;;;;;23.70;58.46;100055.44;3140561;28;20064;-72
2022/06/04 05:36:49;;;;;;;38.58;9.35;;;;;;;23.75;58.10;100051.38;3142175;28;20487;-66
2022/06/04 05:38:21;;;;;;;9.80;6.50;;;;;;;23.81;58.01;100048.13;3136178;28;20049;-66
2022/06/04 05:39:53;;;;;;;36.70;22.45;;;;;;;23.81;57.53;100044.59;3136633;28;20052;-70
2022/06/04 05:41:25;;;;;;;18.10;7.05;;;;;;;23.94;57.35;100054.91;3136581;28;20133;-66
2022/06/04 05:42:57;;;;;;;12.45;7.68;;;;;;;23.98;57.27;100049.13;3139683;28;20133;-69
2022/06/04 05:44:30;;;;;;;13.80;8.55;;;;;;;24.06;57.14;100046.53;3140550;28;20048;-67
2022/06/04 05:46:04;;;;;;;19.55;8.10;;;;;;;24.10;56.73;100043.59;3140442;28;20148;-66
2022/06/04 05:47:36;;;;;;;17.00;10.38;;;;;;;24.19;56.98;100051.50;3140305;28;20094;-67
2022/06/04 05:49:08;;;;;;;14.52;5.90;;;;;;;24.03;56.23;100022.06;3139997;28;20060;-74
2022/06/04 05:50:40;;;;;;;22.45;5.72;;;;;;;24.31;55.87;100049.44;3140598;28;20052;-70
2022/06/04 05:52:14;;;;;;;11.77;6.40;;;;;;;24.35;56.20;100052.66;3140434;28;20548;-65
2022/06/04 05:53:48;;;;;;;9.52;5.97;;;;;;;24.38;55.97;100047.88;3140650;28;20486;-67
2022/06/04 05:55:22;;;;;;;12.63;6.60;;;;;;;24.40;55.78;100050.34;3140582;28;20056;-74
2022/06/04 05:56:57;;;;;;;19.77;13.05;;;;;;;24.04;55.70;99982.00;3140547;28;20049;-77
2022/06/04 05:58:29;;;;;;;8.93;5.72;;;;;;;24.54;55.43;100057.84;3140439;28;20056;-71
2022/06/04 06:00:00;;;;;;;11.77;6.15;;;;;;;24.38;55.48;100026.56;3140544;28;20208;-71
2022/06/04 06:01:34;;;;;;;13.70;5.50;;;;;;;24.65;55.75;100057.63;3140898;28;20045;-75
2022/06/04 06:03:06;;;;;;;11.35;6.25;;;;;;;24.67;55.33;100050.31;3131017;28;20110;-70
2022/06/04 06:04:38;;;;;;;9.52;6.03;;;;;;;24.80;55.76;100054.41;3140714;28;20048;-74
2022/06/04 06:06:13;;;;;;;10.75;5.88;;;;;;;24.88;55.39;100041.16;3140628;28;20052;-73
2022/06/04 06:07:46;;;;;;;10.63;5.60;;;;;;;24.96;55.39;100044.72;3140421;28;20830;-74
2022/06/04 06:09:19;;;;;;;;;;;;;;;25.04;55.57;100049.25;3133456;28;20136;-76
2022/06/04 06:10:51;;;;;;;12.13;5.85;;;;;;;25.09;55.32;100049.63;3136667;28;19924;-75
2022/06/04 06:12:23;;;;;;;9.45;5.68;;;;;;;25.11;54.76;100036.13;3140099;28;20771;-75
2022/06/04 06:13:54;;;;;;;8.07;5.53;;;;;;;25.23;54.97;100048.25;3140339;28;20583;-71
2022/06/04 06:15:26;;;;;;;13.20;5.88;;;;;;;25.29;54.58;100047.59;3140359;28;20186;-73
2022/06/04 06:16:58;;;;;;;7.70;5.43;;;;;;;25.22;54.13;100029.72;3140262;28;20087;-74
2022/06/04 06:18:30;;;;;;;8.27;5.30;;;;;;;25.41;54.11;100053.50;3140421;28;20144;-75
2022/06/04 06:20:04;;;;;;;11.85;5.78;;;;;;;25.48;54.07;100045.69;3140342;28;20064;-74
2022/06/04 06:21:37;;;;;;;11.85;5.65;;;;;;;25.57;53.97;100047.41;3140445;28;20074;-70
2022/06/04 06:23:11;;;;;;;10.77;5.68;;;;;;;25.63;53.42;100039.59;3140138;28;20079;-70
2022/06/04 06:24:42;;;;;;;12.57;5.28;;;;;;;25.71;53.53;100040.63;3140046;28;20143;-72
2022/06/04 06:26:17;;;;;;;8.18;5.10;;;;;;;25.67;53.26;100031.25;3140137;28;20072;-69
2022/06/04 06:27:49;;;;;;;10.82;5.65;;;;;;;25.74;52.96;100038.47;3140189;28;20109;-69
2022/06/04 06:29:23;;;;;;;7.75;5.45;;;;;;;25.80;53.17;100035.16;3140141;28;20052;-69
2022/06/04 06:30:56;;;;;;;9.90;5.38;;;;;;;25.85;53.01;100035.53;3137982;28;20139;-70
2022/06/04 06:32:28;;;;;;;15.00;5.82;;;;;;;25.93;53.00;100033.88;3135882;28;20087;-73
2022/06/04 06:34:00;;;;;;;9.75;5.60;;;;;;;26.00;52.81;100029.56;3140239;28;20060;-72
2022/06/04 06:35:32;;;;;;;9.20;5.03;;;;;;;26.05;52.07;100020.06;3132058;28;20068;-73
2022/06/04 06:37:05;;;;;;;14.50;5.88;;;;;;;26.12;52.40;100038.94;3140213;28;20052;-73
2022/06/04 06:38:38;;;;;;;8.52;4.60;;;;;;;26.11;52.20;100023.91;3140510;28;20057;-71
2022/06/04 06:40:12;;;;;;;12.60;5.68;;;;;;;26.00;51.78;100003.72;3140238;28;20121;-69
2022/06/04 06:41:46;;;;;;;9.85;6.00;;;;;;;26.25;51.38;100035.78;3135941;28;20040;-70
2022/06/04 06:43:18;;;;;;;10.68;5.40;;;;;;;26.24;51.70;100032.28;3137604;28;20509;-73
2022/06/04 06:44:49;;;;;;;11.65;5.63;;;;;;;26.25;51.50;100033.94;3139794;28;20063;-68
2022/06/04 06:46:28;;;;;;;9.32;5.50;;;;;;;26.29;51.39;100034.44;3139821;28;20052;-73
2022/06/04 06:48:01;;;;;;;9.60;5.50;;;;;;;26.31;51.30;100030.59;3135310;28;20048;-72
2022/06/04 06:49:32;;;;;;;9.25;5.43;;;;;;;26.35;50.92;100035.63;3139778;28;20048;-70
2022/06/04 06:51:08;;;;;;;9.25;5.82;;;;;;;26.17;50.81;100001.06;3139709;28;20048;-72
2022/06/04 06:52:40;;;;;;;11.05;5.50;;;;;;;26.47;50.81;100036.97;3139776;28;20052;-70
2022/06/04 06:54:14;;;;;;;15.65;5.35;;;;;;;26.58;50.98;100028.66;3139821;28;20056;-70
2022/06/04 06:55:46;;;;;;;14.50;6.10;;;;;;;26.66;50.78;100020.66;3140116;28;20056;-73
2022/06/04 06:57:19;;;;;;;12.93;5.57;;;;;;;26.67;50.81;100013.47;3139316;28;20075;-73
2022/06/04 06:58:51;;;;;;;10.48;5.50;;;;;;;26.95;50.28;100038.00;3133422;28;20114;-72
2022/06/04 07:00:24;;;;;;;11.82;6.30;;;;;;;27.08;50.08;100034.78;3139966;28;20410;-69
2022/06/04 07:01:57;;;;;;;10.32;5.22;;;;;;;27.19;49.97;100034.47;3139683;28;20059;-70
2022/06/04 07:03:28;;;;;;;;;;;;;;;27.29;49.81;100035.09;3138280;28;20056;-67
2022/06/04 07:05:00;;;;;;;22.17;13.90;;;;;;;27.39;49.64;100026.84;3139756;28;19928;-64
2022/06/04 07:06:34;;;;;;;22.23;10.80;;;;;;;27.48;49.22;100024.97;3139975;28;20086;-66
2022/06/04 07:08:06;;;;;;;24.60;7.07;;;;;;;27.54;48.68;100029.63;3139625;28;20604;-69
2022/06/04 07:09:41;;;;;;;8.38;5.65;;;;;;;27.58;48.54;100025.63;3139632;28;20044;-66
2022/06/04 07:11:13;;;;;;;45.90;24.92;;;;;;;27.64;48.93;100027.59;3139130;28;20102;-67
2022/06/04 07:12:45;;;;;;;22.33;13.73;;;;;;;27.68;48.64;100016.34;3138014;28;20055;-65
2022/06/04 07:14:18;;;;;;;19.42;9.63;;;;;;;27.73;48.36;100013.19;3139903;28;20172;-68
2022/06/04 07:15:50;;;;;;;9.43;5.20;;;;;;;27.81;48.16;100026.56;3139576;28;20052;-66
2022/06/04 07:17:22;;;;;;;8.80;5.93;;;;;;;27.83;47.94;100013.84;3139577;28;20133;-67
2022/06/04 07:18:54;;;;;;;17.05;6.05;;;;;;;27.86;47.85;100020.66;3139740;28;20044;-67
2022/06/04 07:20:26;;;;;;;10.00;5.43;;;;;;;27.92;48.11;100017.28;3139669;28;20060;-67
2022/06/04 07:21:58;;;;;;;10.80;5.30;;;;;;;27.98;47.79;100010.38;3139950;28;20052;-66
2022/06/04 07:23:33;;;;;;;11.50;6.03;;;;;;;28.02;47.58;100006.34;3139641;28;20608;-67
2022/06/04 07:25:07;;;;;;;9.73;5.50;;;;;;;28.08;47.22;100003.78;3138024;28;20354;-67